Bangor, Michigan
Current Conditions -  °F | °C
As of 10:55 AM on Thursday 30 Oct 2014 (Local Time) from KLWA Reporting Station
Overcast Overcast  
Wind Chill: 48°   Ceiling: 4000
Heat Index: 49°   Visibility: 10mi
Dew Point: 38°   Wind: 5mph
Humidity: 65%   Direction: 220°SW
Pressure: 30.12"   Gusts: NA
Location:  42.31°N, 86.11°W
Report Text: KLWA 301455Z AUTO 22004KT 10SM OVC040 10/03 A3012 RMK AO2 T00960033
Loading
Personal Weather Stations






























Interactive Weather Map
Tropical Storm Tracking
New forecast layout! Learn more

10-Day Weather Forecast

Advertisements
Track Severe Weather on mobile